sensor_id;sensor_type;location;lat;lon;timestamp;temperature;humidity
64652;HTU21D;51062;45.120;37.660;2022-11-04T00:01:46;7.87;75.51
64652;HTU21D;51062;45.120;37.660;2022-11-04T00:04:13;7.88;75.47
64652;HTU21D;51062;45.120;37.660;2022-11-04T00:06:40;7.89;75.43
64652;HTU21D;51062;45.120;37.660;2022-11-04T00:09:10;7.88;75.40
64652;HTU21D;51062;45.120;37.660;2022-11-04T00:11:36;7.84;75.41
64652;HTU21D;51062;45.120;37.660;2022-11-04T00:14:21;7.78;75.44
64652;HTU21D;51062;45.120;37.660;2022-11-04T00:16:47;7.74;75.52
64652;HTU21D;51062;45.120;37.660;2022-11-04T00:19:32;7.73;75.57
64652;HTU21D;51062;45.120;37.660;2022-11-04T00:22:18;7.73;75.54
64652;HTU21D;51062;45.120;37.660;2022-11-04T00:25:03;7.73;75.59
64652;HTU21D;51062;45.120;37.660;2022-11-04T00:27:48;7.74;75.70
64652;HTU21D;51062;45.120;37.660;2022-11-04T00:30:33;7.78;75.76
64652;HTU21D;51062;45.120;37.660;2022-11-04T00:32:59;7.86;75.79
64652;HTU21D;51062;45.120;37.660;2022-11-04T00:35:50;7.93;75.78
64652;HTU21D;51062;45.120;37.660;2022-11-04T00:38:17;8.00;75.72
64652;HTU21D;51062;45.120;37.660;2022-11-04T00:40:43;8.06;75.71
64652;HTU21D;51062;45.120;37.660;2022-11-04T00:43:10;8.14;75.66
64652;HTU21D;51062;45.120;37.660;2022-11-04T00:45:36;8.21;75.57
64652;HTU21D;51062;45.120;37.660;2022-11-04T00:48:02;8.28;75.50
64652;HTU21D;51062;45.120;37.660;2022-11-04T00:50:29;8.34;75.46
64652;HTU21D;51062;45.120;37.660;2022-11-04T00:53:04;8.39;75.47
64652;HTU21D;51062;45.120;37.660;2022-11-04T00:55:30;8.46;75.38
64652;HTU21D;51062;45.120;37.660;2022-11-04T00:57:57;8.48;75.32
64652;HTU21D;51062;45.120;37.660;2022-11-04T01:00:23;8.49;75.35
64652;HTU21D;51062;45.120;37.660;2022-11-04T01:02:49;8.53;75.37
64652;HTU21D;51062;45.120;37.660;2022-11-04T01:05:15;8.55;75.38
64652;HTU21D;51062;45.120;37.660;2022-11-04T01:07:41;8.57;75.43
64652;HTU21D;51062;45.120;37.660;2022-11-04T01:10:08;8.62;75.41
64652;HTU21D;51062;45.120;37.660;2022-11-04T01:12:34;8.65;75.41
64652;HTU21D;51062;45.120;37.660;2022-11-04T01:15:00;8.68;75.39
64652;HTU21D;51062;45.120;37.660;2022-11-04T01:17:26;8.71;75.34
64652;HTU21D;51062;45.120;37.660;2022-11-04T01:19:52;8.72;75.30
64652;HTU21D;51062;45.120;37.660;2022-11-04T01:22:18;8.74;75.31
64652;HTU21D;51062;45.120;37.660;2022-11-04T01:24:44;8.77;75.29
64652;HTU21D;51062;45.120;37.660;2022-11-04T01:27:10;8.79;75.25
64652;HTU21D;51062;45.120;37.660;2022-11-04T01:29:36;8.83;75.26
64652;HTU21D;51062;45.120;37.660;2022-11-04T01:32:02;8.88;75.17
64652;HTU21D;51062;45.120;37.660;2022-11-04T01:34:29;8.89;75.14
64652;HTU21D;51062;45.120;37.660;2022-11-04T01:36:55;8.88;75.12
64652;HTU21D;51062;45.120;37.660;2022-11-04T01:39:21;8.86;75.11
64652;HTU21D;51062;45.120;37.660;2022-11-04T01:41:47;8.82;75.15
64652;HTU21D;51062;45.120;37.660;2022-11-04T01:47:19;8.81;75.28
64652;HTU21D;51062;45.120;37.660;2022-11-04T01:49:56;8.80;75.27
64652;HTU21D;51062;45.120;37.660;2022-11-04T01:52:51;8.78;75.28
64652;HTU21D;51062;45.120;37.660;2022-11-04T01:55:20;8.74;75.33
64652;HTU21D;51062;45.120;37.660;2022-11-04T01:57:48;8.71;75.28
64652;HTU21D;51062;45.120;37.660;2022-11-04T02:00:15;8.68;75.29
64652;HTU21D;51062;45.120;37.660;2022-11-04T02:02:58;8.70;75.31
64652;HTU21D;51062;45.120;37.660;2022-11-04T02:05:25;8.66;75.17
64652;HTU21D;51062;45.120;37.660;2022-11-04T02:07:54;8.64;75.08
64652;HTU21D;51062;45.120;37.660;2022-11-04T02:10:25;8.59;75.05
64652;HTU21D;51062;45.120;37.660;2022-11-04T02:12:53;8.52;75.03
64652;HTU21D;51062;45.120;37.660;2022-11-04T02:15:32;8.44;75.12
64652;HTU21D;51062;45.120;37.660;2022-11-04T02:34:54;8.26;75.39
64652;HTU21D;51062;45.120;37.660;2022-11-04T02:40:20;8.30;75.42
64652;HTU21D;51062;45.120;37.660;2022-11-04T02:45:44;8.31;75.34
64652;HTU21D;51062;45.120;37.660;2022-11-04T02:48:44;8.32;75.29
64652;HTU21D;51062;45.120;37.660;2022-11-04T02:54:29;8.34;75.31
64652;HTU21D;51062;45.120;37.660;2022-11-04T02:56:59;8.35;75.21
64652;HTU21D;51062;45.120;37.660;2022-11-04T03:02:05;8.37;75.19
64652;HTU21D;51062;45.120;37.660;2022-11-04T03:04:36;8.37;75.18
64652;HTU21D;51062;45.120;37.660;2022-11-04T03:07:07;8.38;75.18
64652;HTU21D;51062;45.120;37.660;2022-11-04T03:09:36;8.39;75.19
64652;HTU21D;51062;45.120;37.660;2022-11-04T03:12:07;8.38;75.19
64652;HTU21D;51062;45.120;37.660;2022-11-04T03:14:45;8.39;75.24
64652;HTU21D;51062;45.120;37.660;2022-11-04T03:17:43;8.39;75.25
64652;HTU21D;51062;45.120;37.660;2022-11-04T03:20:17;8.39;75.20
64652;HTU21D;51062;45.120;37.660;2022-11-04T03:22:43;8.42;75.24
64652;HTU21D;51062;45.120;37.660;2022-11-04T03:25:10;8.44;75.26
64652;HTU21D;51062;45.120;37.660;2022-11-04T03:30:10;8.49;75.30
64652;HTU21D;51062;45.120;37.660;2022-11-04T03:35:13;8.58;75.42
64652;HTU21D;51062;45.120;37.660;2022-11-04T03:37:41;8.65;75.44
64652;HTU21D;51062;45.120;37.660;2022-11-04T03:40:09;8.74;75.41
64652;HTU21D;51062;45.120;37.660;2022-11-04T03:42:41;8.83;75.37
64652;HTU21D;51062;45.120;37.660;2022-11-04T03:45:09;8.93;75.28
64652;HTU21D;51062;45.120;37.660;2022-11-04T03:47:36;9.02;75.15
64652;HTU21D;51062;45.120;37.660;2022-11-04T03:52:31;9.08;75.02
64652;HTU21D;51062;45.120;37.660;2022-11-04T03:54:57;9.10;74.99
64652;HTU21D;51062;45.120;37.660;2022-11-04T04:00:18;9.15;75.07
64652;HTU21D;51062;45.120;37.660;2022-11-04T04:03:07;9.16;75.16
64652;HTU21D;51062;45.120;37.660;2022-11-04T04:05:48;9.18;75.09
64652;HTU21D;51062;45.120;37.660;2022-11-04T04:09:15;9.19;75.06
64652;HTU21D;51062;45.120;37.660;2022-11-04T04:11:41;9.18;74.95
64652;HTU21D;51062;45.120;37.660;2022-11-04T04:14:35;9.14;75.01
64652;HTU21D;51062;45.120;37.660;2022-11-04T04:19:54;9.08;75.12
64652;HTU21D;51062;45.120;37.660;2022-11-04T04:22:26;9.09;75.14
64652;HTU21D;51062;45.120;37.660;2022-11-04T04:24:57;9.10;75.17
64652;HTU21D;51062;45.120;37.660;2022-11-04T04:27:43;9.12;75.16
64652;HTU21D;51062;45.120;37.660;2022-11-04T04:30:12;9.17;75.15
64652;HTU21D;51062;45.120;37.660;2022-11-04T04:35:14;9.23;75.04
64652;HTU21D;51062;45.120;37.660;2022-11-04T04:38:04;9.24;74.99
64652;HTU21D;51062;45.120;37.660;2022-11-04T04:40:54;9.24;74.99
64652;HTU21D;51062;45.120;37.660;2022-11-04T04:43:41;9.24;75.05
64652;HTU21D;51062;45.120;37.660;2022-11-04T04:46:30;9.37;75.12
64652;HTU21D;51062;45.120;37.660;2022-11-04T04:49:05;9.52;74.99
64652;HTU21D;51062;45.120;37.660;2022-11-04T04:51:31;9.80;75.01
64652;HTU21D;51062;45.120;37.660;2022-11-04T04:53:58;10.29;74.79
64652;HTU21D;51062;45.120;37.660;2022-11-04T04:56:24;10.93;73.43
64652;HTU21D;51062;45.120;37.660;2022-11-04T04:58:50;11.55;72.83
64652;HTU21D;51062;45.120;37.660;2022-11-04T05:01:16;12.11;72.42
64652;HTU21D;51062;45.120;37.660;2022-11-04T05:03:42;12.57;72.16
64652;HTU21D;51062;45.120;37.660;2022-11-04T05:06:08;13.02;71.95
64652;HTU21D;51062;45.120;37.660;2022-11-04T05:08:34;13.44;71.83
64652;HTU21D;51062;45.120;37.660;2022-11-04T05:11:00;13.84;71.65
64652;HTU21D;51062;45.120;37.660;2022-11-04T05:13:27;14.23;71.48
64652;HTU21D;51062;45.120;37.660;2022-11-04T05:15:56;14.57;71.35
64652;HTU21D;51062;45.120;37.660;2022-11-04T05:18:22;14.97;71.08
64652;HTU21D;51062;45.120;37.660;2022-11-04T05:20:48;15.33;70.85
64652;HTU21D;51062;45.120;37.660;2022-11-04T05:23:15;15.63;70.67
64652;HTU21D;51062;45.120;37.660;2022-11-04T05:25:41;15.97;70.57
64652;HTU21D;51062;45.120;37.660;2022-11-04T05:28:08;16.29;70.39
64652;HTU21D;51062;45.120;37.660;2022-11-04T05:30:35;16.61;70.14
64652;HTU21D;51062;45.120;37.660;2022-11-04T05:33:01;16.93;69.93
64652;HTU21D;51062;45.120;37.660;2022-11-04T05:35:28;17.25;69.71
64652;HTU21D;51062;45.120;37.660;2022-11-04T05:37:54;17.59;69.42
64652;HTU21D;51062;45.120;37.660;2022-11-04T05:40:22;17.93;68.94
64652;HTU21D;51062;45.120;37.660;2022-11-04T05:42:48;18.17;68.65
64652;HTU21D;51062;45.120;37.660;2022-11-04T05:45:15;18.37;68.61
64652;HTU21D;51062;45.120;37.660;2022-11-04T05:47:41;18.57;68.58
64652;HTU21D;51062;45.120;37.660;2022-11-04T05:50:07;18.85;68.42
64652;HTU21D;51062;45.120;37.660;2022-11-04T05:52:33;19.09;68.30
64652;HTU21D;51062;45.120;37.660;2022-11-04T05:55:00;19.39;68.07
64652;HTU21D;51062;45.120;37.660;2022-11-04T05:57:26;19.65;67.84
64652;HTU21D;51062;45.120;37.660;2022-11-04T05:59:52;19.85;67.65
64652;HTU21D;51062;45.120;37.660;2022-11-04T06:02:18;20.01;67.49
64652;HTU21D;51062;45.120;37.660;2022-11-04T06:04:44;20.06;67.43
64652;HTU21D;51062;45.120;37.660;2022-11-04T06:07:10;20.16;67.30
64652;HTU21D;51062;45.120;37.660;2022-11-04T06:09:36;20.31;66.89
64652;HTU21D;51062;45.120;37.660;2022-11-04T06:12:10;20.44;66.56
64652;HTU21D;51062;45.120;37.660;2022-11-04T06:14:37;20.45;66.33
64652;HTU21D;51062;45.120;37.660;2022-11-04T06:17:03;20.41;66.34
64652;HTU21D;51062;45.120;37.660;2022-11-04T06:19:29;20.29;66.62
64652;HTU21D;51062;45.120;37.660;2022-11-04T06:21:55;20.31;66.75
64652;HTU21D;51062;45.120;37.660;2022-11-04T06:24:22;20.40;66.45
64652;HTU21D;51062;45.120;37.660;2022-11-04T06:26:47;20.42;66.29
64652;HTU21D;51062;45.120;37.660;2022-11-04T06:29:14;20.46;66.10
64652;HTU21D;51062;45.120;37.660;2022-11-04T06:31:40;20.51;66.12
64652;HTU21D;51062;45.120;37.660;2022-11-04T06:34:06;20.59;66.16
64652;HTU21D;51062;45.120;37.660;2022-11-04T06:36:32;20.73;65.97
64652;HTU21D;51062;45.120;37.660;2022-11-04T06:38:58;20.88;65.58
64652;HTU21D;51062;45.120;37.660;2022-11-04T06:41:24;20.93;65.45
64652;HTU21D;51062;45.120;37.660;2022-11-04T06:43:50;21.04;65.21
64652;HTU21D;51062;45.120;37.660;2022-11-04T06:46:45;21.18;65.06
64652;HTU21D;51062;45.120;37.660;2022-11-04T06:49:18;21.33;64.82
64652;HTU21D;51062;45.120;37.660;2022-11-04T06:51:48;21.48;64.42
64652;HTU21D;51062;45.120;37.660;2022-11-04T06:54:15;21.52;64.27
64652;HTU21D;51062;45.120;37.660;2022-11-04T06:56:42;21.57;64.24
64652;HTU21D;51062;45.120;37.660;2022-11-04T06:59:15;21.68;63.96
64652;HTU21D;51062;45.120;37.660;2022-11-04T07:01:41;21.67;63.81
64652;HTU21D;51062;45.120;37.660;2022-11-04T07:04:08;21.67;63.80
64652;HTU21D;51062;45.120;37.660;2022-11-04T07:06:34;21.60;63.79
64652;HTU21D;51062;45.120;37.660;2022-11-04T07:09:01;21.62;63.79
64652;HTU21D;51062;45.120;37.660;2022-11-04T07:11:29;21.64;63.53
64652;HTU21D;51062;45.120;37.660;2022-11-04T07:13:56;21.66;63.42
64652;HTU21D;51062;45.120;37.660;2022-11-04T07:16:22;21.61;63.41
64652;HTU21D;51062;45.120;37.660;2022-11-04T07:18:49;21.52;63.38
64652;HTU21D;51062;45.120;37.660;2022-11-04T07:21:16;21.44;63.56
64652;HTU21D;51062;45.120;37.660;2022-11-04T07:23:43;21.36;63.52
64652;HTU21D;51062;45.120;37.660;2022-11-04T07:26:10;21.35;63.46
64652;HTU21D;51062;45.120;37.660;2022-11-04T07:28:37;21.35;63.18
64652;HTU21D;51062;45.120;37.660;2022-11-04T07:31:06;21.27;63.10
64652;HTU21D;51062;45.120;37.660;2022-11-04T07:33:32;21.29;62.99
64652;HTU21D;51062;45.120;37.660;2022-11-04T07:36:04;21.36;62.74
64652;HTU21D;51062;45.120;37.660;2022-11-04T07:38:30;21.36;62.66
64652;HTU21D;51062;45.120;37.660;2022-11-04T07:40:57;21.37;62.43
64652;HTU21D;51062;45.120;37.660;2022-11-04T07:43:23;21.33;62.42
64652;HTU21D;51062;45.120;37.660;2022-11-04T07:46:05;21.46;62.13
64652;HTU21D;51062;45.120;37.660;2022-11-04T07:48:32;21.46;62.00
64652;HTU21D;51062;45.120;37.660;2022-11-04T07:50:59;21.37;62.00
64652;HTU21D;51062;45.120;37.660;2022-11-04T07:53:27;21.27;62.20
64652;HTU21D;51062;45.120;37.660;2022-11-04T07:55:53;21.18;62.26
64652;HTU21D;51062;45.120;37.660;2022-11-04T07:58:20;21.13;62.37
64652;HTU21D;51062;45.120;37.660;2022-11-04T08:00:47;20.95;62.32
64652;HTU21D;51062;45.120;37.660;2022-11-04T08:03:14;20.44;62.85
64652;HTU21D;51062;45.120;37.660;2022-11-04T08:05:40;19.88;63.54
64652;HTU21D;51062;45.120;37.660;2022-11-04T08:08:06;19.30;64.33
64652;HTU21D;51062;45.120;37.660;2022-11-04T08:10:32;18.78;65.06
64652;HTU21D;51062;45.120;37.660;2022-11-04T08:12:59;18.43;65.79
64652;HTU21D;51062;45.120;37.660;2022-11-04T08:15:24;18.29;65.99
64652;HTU21D;51062;45.120;37.660;2022-11-04T08:17:51;18.22;66.14
64652;HTU21D;51062;45.120;37.660;2022-11-04T08:20:17;18.21;66.14
64652;HTU21D;51062;45.120;37.660;2022-11-04T08:22:43;18.15;66.06
64652;HTU21D;51062;45.120;37.660;2022-11-04T08:25:09;18.02;66.09
64652;HTU21D;51062;45.120;37.660;2022-11-04T08:27:38;17.87;66.19
64652;HTU21D;51062;45.120;37.660;2022-11-04T08:30:05;17.76;66.30
64652;HTU21D;51062;45.120;37.660;2022-11-04T08:32:31;17.66;66.45
64652;HTU21D;51062;45.120;37.660;2022-11-04T08:34:57;17.64;66.50
64652;HTU21D;51062;45.120;37.660;2022-11-04T08:37:23;17.64;66.51
64652;HTU21D;51062;45.120;37.660;2022-11-04T08:39:49;17.63;66.32
64652;HTU21D;51062;45.120;37.660;2022-11-04T08:42:15;17.54;66.18
64652;HTU21D;51062;45.120;37.660;2022-11-04T08:44:41;17.45;66.25
64652;HTU21D;51062;45.120;37.660;2022-11-04T08:47:07;17.34;66.17
64652;HTU21D;51062;45.120;37.660;2022-11-04T08:49:38;17.19;66.10
64652;HTU21D;51062;45.120;37.660;2022-11-04T08:52:04;16.98;66.27
64652;HTU21D;51062;45.120;37.660;2022-11-04T08:54:30;16.90;66.50
64652;HTU21D;51062;45.120;37.660;2022-11-04T08:56:56;16.89;66.44
64652;HTU21D;51062;45.120;37.660;2022-11-04T08:59:23;16.85;66.39
64652;HTU21D;51062;45.120;37.660;2022-11-04T09:01:49;16.78;66.42
64652;HTU21D;51062;45.120;37.660;2022-11-04T09:04:16;16.81;66.53
64652;HTU21D;51062;45.120;37.660;2022-11-04T09:06:43;16.89;66.47
64652;HTU21D;51062;45.120;37.660;2022-11-04T09:09:13;16.93;66.32
64652;HTU21D;51062;45.120;37.660;2022-11-04T09:11:42;16.88;66.12
64652;HTU21D;51062;45.120;37.660;2022-11-04T09:14:09;16.77;66.05
64652;HTU21D;51062;45.120;37.660;2022-11-04T09:16:36;16.64;66.04
64652;HTU21D;51062;45.120;37.660;2022-11-04T09:19:04;16.54;66.22
64652;HTU21D;51062;45.120;37.660;2022-11-04T09:21:30;16.47;66.22
64652;HTU21D;51062;45.120;37.660;2022-11-04T09:23:58;16.40;66.22
64652;HTU21D;51062;45.120;37.660;2022-11-04T09:26:26;16.37;66.15
64652;HTU21D;51062;45.120;37.660;2022-11-04T09:28:54;16.37;66.14
64652;HTU21D;51062;45.120;37.660;2022-11-04T09:31:20;16.36;66.07
64652;HTU21D;51062;45.120;37.660;2022-11-04T09:33:46;16.36;66.02
64652;HTU21D;51062;45.120;37.660;2022-11-04T09:36:13;16.24;65.88
64652;HTU21D;51062;45.120;37.660;2022-11-04T09:38:40;16.14;66.09
64652;HTU21D;51062;45.120;37.660;2022-11-04T09:46:37;16.04;66.17
64652;HTU21D;51062;45.120;37.660;2022-11-04T09:49:07;16.08;66.14
64652;HTU21D;51062;45.120;37.660;2022-11-04T09:51:35;16.16;66.05
64652;HTU21D;51062;45.120;37.660;2022-11-04T09:54:10;16.19;65.94
64652;HTU21D;51062;45.120;37.660;2022-11-04T09:56:39;16.24;65.88
64652;HTU21D;51062;45.120;37.660;2022-11-04T09:59:08;16.27;65.87
64652;HTU21D;51062;45.120;37.660;2022-11-04T10:18:15;15.52;66.37
64652;HTU21D;51062;45.120;37.660;2022-11-04T10:23:44;15.47;66.38
64652;HTU21D;51062;45.120;37.660;2022-11-04T10:26:23;15.46;66.40
64652;HTU21D;51062;45.120;37.660;2022-11-04T10:28:59;15.42;66.36
64652;HTU21D;51062;45.120;37.660;2022-11-04T10:31:26;15.32;66.30
64652;HTU21D;51062;45.120;37.660;2022-11-04T10:34:36;15.14;66.32
64652;HTU21D;51062;45.120;37.660;2022-11-04T10:37:01;15.04;66.64
64652;HTU21D;51062;45.120;37.660;2022-11-04T10:39:31;15.04;66.78
64652;HTU21D;51062;45.120;37.660;2022-11-04T10:41:58;15.12;66.72
64652;HTU21D;51062;45.120;37.660;2022-11-04T10:44:27;15.22;66.59
64652;HTU21D;51062;45.120;37.660;2022-11-04T10:52:32;15.49;66.41
64652;HTU21D;51062;45.120;37.660;2022-11-04T10:55:00;15.62;66.34
64652;HTU21D;51062;45.120;37.660;2022-11-04T10:57:27;15.69;66.24
64652;HTU21D;51062;45.120;37.660;2022-11-04T11:00:02;15.73;66.22
64652;HTU21D;51062;45.120;37.660;2022-11-04T11:05:22;15.56;66.01
64652;HTU21D;51062;45.120;37.660;2022-11-04T11:07:55;15.36;66.11
64652;HTU21D;51062;45.120;37.660;2022-11-04T11:10:29;15.16;66.24
64652;HTU21D;51062;45.120;37.660;2022-11-04T11:13:05;14.94;66.40
64652;HTU21D;51062;45.120;37.660;2022-11-04T11:20:33;14.45;67.06
64652;HTU21D;51062;45.120;37.660;2022-11-04T11:23:03;14.42;67.14
64652;HTU21D;51062;45.120;37.660;2022-11-04T11:25:35;14.40;67.14
64652;HTU21D;51062;45.120;37.660;2022-11-04T11:28:12;14.36;67.04
64652;HTU21D;51062;45.120;37.660;2022-11-04T11:33:22;14.36;67.17
64652;HTU21D;51062;45.120;37.660;2022-11-04T11:35:56;14.38;67.07
64652;HTU21D;51062;45.120;37.660;2022-11-04T11:38:28;14.39;66.99
64652;HTU21D;51062;45.120;37.660;2022-11-04T11:41:08;14.38;66.90
64652;HTU21D;51062;45.120;37.660;2022-11-04T11:43:37;14.35;66.90
64652;HTU21D;51062;45.120;37.660;2022-11-04T11:46:05;14.32;66.94
64652;HTU21D;51062;45.120;37.660;2022-11-04T11:48:41;14.32;67.01
64652;HTU21D;51062;45.120;37.660;2022-11-04T11:51:14;14.36;67.03
64652;HTU21D;51062;45.120;37.660;2022-11-04T11:56:46;14.52;66.88
64652;HTU21D;51062;45.120;37.660;2022-11-04T11:59:37;14.52;66.73
64652;HTU21D;51062;45.120;37.660;2022-11-04T12:02:39;14.45;66.66
64652;HTU21D;51062;45.120;37.660;2022-11-04T12:05:13;14.33;66.68
64652;HTU21D;51062;45.120;37.660;2022-11-04T12:13:22;13.97;67.10
64652;HTU21D;51062;45.120;37.660;2022-11-04T12:19:22;13.73;67.26
64652;HTU21D;51062;45.120;37.660;2022-11-04T12:27:51;13.48;67.37
64652;HTU21D;51062;45.120;37.660;2022-11-04T12:30:20;13.39;67.39
64652;HTU21D;51062;45.120;37.660;2022-11-04T12:44:03;13.12;67.61
64652;HTU21D;51062;45.120;37.660;2022-11-04T12:57:49;13.06;67.67
64652;HTU21D;51062;45.120;37.660;2022-11-04T13:00:20;13.04;67.61
64652;HTU21D;51062;45.120;37.660;2022-11-04T13:05:49;12.94;67.62
64652;HTU21D;51062;45.120;37.660;2022-11-04T13:08:37;12.90;67.68
64652;HTU21D;51062;45.120;37.660;2022-11-04T13:14:20;12.87;67.74
64652;HTU21D;51062;45.120;37.660;2022-11-04T13:16:57;12.85;67.70
64652;HTU21D;51062;45.120;37.660;2022-11-04T13:19:30;12.79;67.72
64652;HTU21D;51062;45.120;37.660;2022-11-04T13:22:06;12.76;67.77
64652;HTU21D;51062;45.120;37.660;2022-11-04T13:24:37;12.73;67.81
64652;HTU21D;51062;45.120;37.660;2022-11-04T13:27:15;12.67;67.83
64652;HTU21D;51062;45.120;37.660;2022-11-04T13:29:42;12.64;67.82
64652;HTU21D;51062;45.120;37.660;2022-11-04T13:32:32;12.58;67.83
64652;HTU21D;51062;45.120;37.660;2022-11-04T13:35:20;12.49;67.83
64652;HTU21D;51062;45.120;37.660;2022-11-04T13:38:06;12.43;67.91
64652;HTU21D;51062;45.120;37.660;2022-11-04T13:40:51;12.37;67.93
64652;HTU21D;51062;45.120;37.660;2022-11-04T13:43:32;12.29;67.93
64652;HTU21D;51062;45.120;37.660;2022-11-04T13:46:18;12.21;67.91
64652;HTU21D;51062;45.120;37.660;2022-11-04T13:49:05;12.12;67.94
64652;HTU21D;51062;45.120;37.660;2022-11-04T13:51:43;12.02;67.97
64652;HTU21D;51062;45.120;37.660;2022-11-04T13:54:42;11.90;68.07
64652;HTU21D;51062;45.120;37.660;2022-11-04T13:57:27;11.79;68.12
64652;HTU21D;51062;45.120;37.660;2022-11-04T14:02:52;11.58;68.25
64652;HTU21D;51062;45.120;37.660;2022-11-04T14:18:51;11.28;68.58
64652;HTU21D;51062;45.120;37.660;2022-11-04T14:21:23;11.25;68.55
64652;HTU21D;51062;45.120;37.660;2022-11-04T14:23:52;11.22;68.54
64652;HTU21D;51062;45.120;37.660;2022-11-04T14:26:23;11.15;68.59
64652;HTU21D;51062;45.120;37.660;2022-11-04T14:29:01;11.10;68.68
64652;HTU21D;51062;45.120;37.660;2022-11-04T14:31:35;11.05;68.63
64652;HTU21D;51062;45.120;37.660;2022-11-04T14:34:03;11.00;68.68
64652;HTU21D;51062;45.120;37.660;2022-11-04T14:39:02;10.89;68.76
64652;HTU21D;51062;45.120;37.660;2022-11-04T14:41:49;10.84;68.90
64652;HTU21D;51062;45.120;37.660;2022-11-04T14:44:36;10.83;68.97
64652;HTU21D;51062;45.120;37.660;2022-11-04T14:47:25;10.82;69.00
64652;HTU21D;51062;45.120;37.660;2022-11-04T14:55:28;10.80;69.06
64652;HTU21D;51062;45.120;37.660;2022-11-04T14:58:19;10.80;69.03
64652;HTU21D;51062;45.120;37.660;2022-11-04T15:05:48;10.72;69.05
64652;HTU21D;51062;45.120;37.660;2022-11-04T15:13:43;10.65;69.04
64652;HTU21D;51062;45.120;37.660;2022-11-04T15:16:17;10.63;69.07
64652;HTU21D;51062;45.120;37.660;2022-11-04T15:18:45;10.64;69.18
64652;HTU21D;51062;45.120;37.660;2022-11-04T15:21:12;10.65;69.27
64652;HTU21D;51062;45.120;37.660;2022-11-04T15:23:47;10.72;69.26
64652;HTU21D;51062;45.120;37.660;2022-11-04T15:26:28;10.81;69.24
64652;HTU21D;51062;45.120;37.660;2022-11-04T15:28:55;10.87;69.18
64652;HTU21D;51062;45.120;37.660;2022-11-04T15:31:27;10.93;69.15
64652;HTU21D;51062;45.120;37.660;2022-11-04T15:33:56;10.97;69.10
64652;HTU21D;51062;45.120;37.660;2022-11-04T15:36:29;11.01;69.10
64652;HTU21D;51062;45.120;37.660;2022-11-04T15:39:24;11.07;69.08
64652;HTU21D;51062;45.120;37.660;2022-11-04T15:41:55;11.05;68.94
64652;HTU21D;51062;45.120;37.660;2022-11-04T15:44:45;11.00;68.85
64652;HTU21D;51062;45.120;37.660;2022-11-04T15:49:46;10.84;68.89
64652;HTU21D;51062;45.120;37.660;2022-11-04T15:52:21;10.74;68.96
64652;HTU21D;51062;45.120;37.660;2022-11-04T15:54:55;0.00;69.04
64652;HTU21D;51062;45.120;37.660;2022-11-04T15:57:31;10.52;69.12
64652;HTU21D;51062;45.120;37.660;2022-11-04T16:02:43;10.34;69.35
64652;HTU21D;51062;45.120;37.660;2022-11-04T16:07:42;10.20;69.58
64652;HTU21D;51062;45.120;37.660;2022-11-04T16:10:31;10.16;69.66
64652;HTU21D;51062;45.120;37.660;2022-11-04T16:15:42;10.16;69.81
64652;HTU21D;51062;45.120;37.660;2022-11-04T16:18:35;10.21;69.83
64652;HTU21D;51062;45.120;37.660;2022-11-04T16:23:36;10.30;69.81
64652;HTU21D;51062;45.120;37.660;2022-11-04T16:26:05;10.37;69.81
64652;HTU21D;51062;45.120;37.660;2022-11-04T16:28:37;10.44;69.78
64652;HTU21D;51062;45.120;37.660;2022-11-04T16:31:30;10.51;69.80
64652;HTU21D;51062;45.120;37.660;2022-11-04T16:33:57;10.56;69.76
64652;HTU21D;51062;45.120;37.660;2022-11-04T16:36:24;10.60;69.75
64652;HTU21D;51062;45.120;37.660;2022-11-04T16:38:58;10.66;69.72
64652;HTU21D;51062;45.120;37.660;2022-11-04T16:41:27;10.70;69.72
64652;HTU21D;51062;45.120;37.660;2022-11-04T16:43:54;10.77;69.70
64652;HTU21D;51062;45.120;37.660;2022-11-04T16:46:21;10.80;69.69
64652;HTU21D;51062;45.120;37.660;2022-11-04T16:48:48;10.84;69.65
64652;HTU21D;51062;45.120;37.660;2022-11-04T16:51:17;10.86;69.61
64652;HTU21D;51062;45.120;37.660;2022-11-04T16:53:48;10.86;69.53
64652;HTU21D;51062;45.120;37.660;2022-11-04T16:56:15;10.81;69.51
64652;HTU21D;51062;45.120;37.660;2022-11-04T16:58:42;10.77;69.54
64652;HTU21D;51062;45.120;37.660;2022-11-04T17:01:13;10.71;69.55
64652;HTU21D;51062;45.120;37.660;2022-11-04T17:03:41;10.64;69.54
64652;HTU21D;51062;45.120;37.660;2022-11-04T17:06:09;10.53;69.58
64652;HTU21D;51062;45.120;37.660;2022-11-04T17:08:35;10.42;69.66
64652;HTU21D;51062;45.120;37.660;2022-11-04T17:11:01;10.34;69.76
64652;HTU21D;51062;45.120;37.660;2022-11-04T17:13:30;10.23;69.84
64652;HTU21D;51062;45.120;37.660;2022-11-04T17:15:57;10.18;69.92
64652;HTU21D;51062;45.120;37.660;2022-11-04T17:18:23;10.09;69.99
64652;HTU21D;51062;45.120;37.660;2022-11-04T17:20:54;10.03;70.05
64652;HTU21D;51062;45.120;37.660;2022-11-04T17:23:21;9.95;70.07
64652;HTU21D;51062;45.120;37.660;2022-11-04T17:25:48;9.90;70.10
64652;HTU21D;51062;45.120;37.660;2022-11-04T17:28:14;9.83;70.16
64652;HTU21D;51062;45.120;37.660;2022-11-04T17:30:41;9.76;70.21
64652;HTU21D;51062;45.120;37.660;2022-11-04T17:33:12;9.68;70.28
64652;HTU21D;51062;45.120;37.660;2022-11-04T17:35:41;9.63;70.30
64652;HTU21D;51062;45.120;37.660;2022-11-04T17:38:10;9.60;70.31
64652;HTU21D;51062;45.120;37.660;2022-11-04T17:40:37;9.55;70.33
64652;HTU21D;51062;45.120;37.660;2022-11-04T17:43:26;9.50;70.32
64652;HTU21D;51062;45.120;37.660;2022-11-04T17:46:11;9.46;70.33
64652;HTU21D;51062;45.120;37.660;2022-11-04T17:48:57;9.40;70.37
64652;HTU21D;51062;45.120;37.660;2022-11-04T17:51:23;9.36;70.42
64652;HTU21D;51062;45.120;37.660;2022-11-04T17:53:50;9.31;70.48
64652;HTU21D;51062;45.120;37.660;2022-11-04T17:56:17;9.27;70.59
64652;HTU21D;51062;45.120;37.660;2022-11-04T17:58:44;9.24;70.66
64652;HTU21D;51062;45.120;37.660;2022-11-04T18:01:12;9.24;70.76
64652;HTU21D;51062;45.120;37.660;2022-11-04T18:03:39;9.23;70.77
64652;HTU21D;51062;45.120;37.660;2022-11-04T18:06:05;9.23;70.74
64652;HTU21D;51062;45.120;37.660;2022-11-04T18:08:31;9.21;70.74
64652;HTU21D;51062;45.120;37.660;2022-11-04T18:11:00;9.21;70.79
64652;HTU21D;51062;45.120;37.660;2022-11-04T18:13:27;9.23;70.88
64652;HTU21D;51062;45.120;37.660;2022-11-04T18:15:54;9.26;70.97
64652;HTU21D;51062;45.120;37.660;2022-11-04T18:18:21;9.34;70.97
64652;HTU21D;51062;45.120;37.660;2022-11-04T18:20:48;9.40;70.91
64652;HTU21D;51062;45.120;37.660;2022-11-04T18:23:15;9.45;70.72
64652;HTU21D;51062;45.120;37.660;2022-11-04T18:25:41;9.46;70.63
64652;HTU21D;51062;45.120;37.660;2022-11-04T18:28:08;9.41;70.56
64652;HTU21D;51062;45.120;37.660;2022-11-04T18:30:38;9.37;70.66
64652;HTU21D;51062;45.120;37.660;2022-11-04T18:33:04;9.35;70.74
64652;HTU21D;51062;45.120;37.660;2022-11-04T18:35:33;9.34;70.80